createdAt,value
2019-01-29T00:00:36.450Z,10.57
2019-01-29T00:01:40.242Z,16.47
2019-01-29T00:02:44.212Z,10.70
2019-01-29T00:03:47.940Z,13.57
2019-01-29T00:04:51.746Z,9.53
2019-01-29T00:05:55.525Z,10.23
2019-01-29T00:06:59.218Z,12.00
2019-01-29T00:08:02.916Z,11.03
2019-01-29T00:09:08.358Z,11.90
2019-01-29T00:10:12.169Z,12.00
2019-01-29T00:11:15.940Z,13.90
2019-01-29T00:12:19.644Z,12.40
2019-01-29T00:13:23.329Z,14.40
2019-01-29T00:14:27.020Z,12.57
2019-01-29T00:15:30.813Z,14.07
2019-01-29T00:16:34.611Z,12.43
2019-01-29T00:17:38.321Z,16.07
2019-01-29T00:18:41.999Z,14.53
2019-01-29T00:19:45.692Z,12.80
2019-01-29T00:20:49.390Z,16.20
2019-01-29T00:21:53.079Z,13.37
2019-01-29T00:22:56.775Z,12.10
2019-01-29T00:24:00.470Z,18.13
2019-01-29T00:25:05.698Z,14.53
2019-01-29T00:26:09.764Z,18.03
2019-01-29T00:27:13.452Z,15.07
2019-01-29T00:28:17.179Z,15.93
2019-01-29T00:29:20.874Z,12.23
2019-01-29T00:30:24.775Z,13.40
2019-01-29T00:31:28.464Z,15.83
2019-01-29T00:32:32.162Z,13.97
2019-01-29T00:33:35.863Z,15.13
2019-01-29T00:34:39.546Z,17.60
2019-01-29T00:35:43.193Z,13.43
2019-01-29T00:36:46.934Z,15.20
2019-01-29T00:37:50.632Z,22.13
2019-01-29T00:38:54.317Z,16.00
2019-01-29T00:39:57.975Z,12.73
2019-01-29T00:41:01.807Z,19.23
2019-01-29T00:42:05.501Z,16.57
2019-01-29T00:43:11.416Z,17.43
2019-01-29T00:44:15.138Z,16.70
2019-01-29T00:45:19.342Z,16.20
2019-01-29T00:46:22.987Z,11.20
2019-01-29T00:47:26.634Z,13.80
2019-01-29T00:48:30.322Z,16.33
2019-01-29T00:49:34.025Z,14.63
2019-01-29T00:50:37.673Z,16.03
2019-01-29T00:51:41.327Z,13.67
2019-01-29T00:52:45.095Z,13.30
2019-01-29T00:53:48.892Z,14.33
2019-01-29T00:54:52.581Z,19.23
2019-01-29T00:55:56.281Z,13.30
2019-01-29T00:56:59.969Z,11.83
2019-01-29T00:58:04.001Z,12.43
2019-01-29T00:59:07.796Z,11.67
2019-01-29T01:00:25.172Z,16.10
2019-01-29T01:01:28.915Z,14.20
2019-01-29T01:02:32.567Z,11.90
2019-01-29T01:03:36.260Z,16.50
2019-01-29T01:04:40.466Z,15.83
2019-01-29T01:05:44.125Z,11.00
2019-01-29T01:06:47.852Z,13.33
2019-01-29T01:07:51.951Z,13.77
2019-01-29T01:08:55.606Z,12.13
2019-01-29T01:09:59.343Z,12.73
2019-01-29T01:11:03.339Z,13.80
2019-01-29T01:12:07.092Z,15.07
2019-01-29T01:13:10.740Z,12.97
2019-01-29T01:14:14.418Z,11.80
2019-01-29T01:15:18.408Z,13.60
2019-01-29T01:16:22.127Z,12.73
2019-01-29T01:17:25.740Z,13.70
2019-01-29T01:18:29.722Z,11.97
2019-01-29T01:19:33.357Z,13.37
2019-01-29T01:20:37.125Z,13.23
2019-01-29T01:21:40.759Z,12.83
2019-01-29T01:22:50.623Z,9.73
2019-01-29T01:23:49.745Z,14.07
2019-01-29T01:24:53.380Z,13.93
2019-01-29T01:25:57.413Z,12.17
2019-01-29T01:27:01.053Z,13.10
2019-01-29T01:28:04.682Z,11.43
2019-01-29T01:29:08.313Z,16.63
2019-01-29T01:30:17.526Z,12.63
2019-01-29T01:31:21.232Z,14.70
2019-01-29T01:32:24.862Z,13.27
2019-01-29T01:33:28.499Z,15.37
2019-01-29T01:34:32.194Z,11.67
2019-01-29T01:35:35.757Z,13.23
2019-01-29T01:36:39.417Z,13.57
2019-01-29T01:37:43.052Z,12.43
2019-01-29T01:38:46.687Z,13.53
2019-01-29T01:39:50.319Z,12.07
2019-01-29T01:40:53.948Z,12.47
2019-01-29T01:41:57.683Z,14.00
2019-01-29T01:43:01.317Z,11.40
2019-01-29T01:44:05.055Z,17.00
2019-01-29T01:45:11.206Z,14.63
2019-01-29T01:46:14.842Z,12.00
2019-01-29T01:47:18.572Z,14.20
2019-01-29T01:48:22.209Z,15.03
2019-01-29T01:49:25.911Z,14.50
2019-01-29T01:50:29.541Z,12.47
2019-01-29T01:51:33.175Z,15.07
2019-01-29T01:52:36.847Z,13.80
2019-01-29T01:53:40.480Z,14.67
2019-01-29T01:54:44.114Z,12.73
2019-01-29T01:55:47.748Z,14.83
2019-01-29T01:56:51.376Z,16.53
2019-01-29T01:57:55.048Z,13.60
2019-01-29T01:58:58.681Z,11.63
2019-01-29T02:00:02.324Z,13.97
2019-01-29T02:01:06.118Z,12.17
2019-01-29T02:02:09.822Z,11.63
2019-01-29T02:03:13.489Z,13.70
2019-01-29T02:04:17.122Z,13.00
2019-01-29T02:05:21.127Z,14.03
2019-01-29T02:06:24.827Z,14.30
2019-01-29T02:07:28.467Z,14.50
2019-01-29T02:08:32.314Z,12.13
2019-01-29T02:09:35.983Z,14.50
2019-01-29T02:10:39.683Z,14.97
2019-01-29T02:11:43.316Z,16.20
2019-01-29T02:12:46.944Z,18.37
2019-01-29T02:13:50.614Z,14.80
2019-01-29T02:14:54.308Z,12.10
2019-01-29T02:15:57.950Z,12.30
2019-01-29T02:17:01.579Z,14.17
2019-01-29T02:18:05.275Z,13.67
2019-01-29T02:19:08.934Z,11.73
2019-01-29T02:20:14.908Z,14.33
2019-01-29T02:21:18.544Z,13.27
2019-01-29T02:22:22.183Z,14.17
2019-01-29T02:23:25.821Z,17.97
2019-01-29T02:24:29.483Z,15.00
2019-01-29T02:25:33.487Z,19.80
2019-01-29T02:26:37.196Z,33.50
2019-01-29T02:27:40.881Z,31.00
2019-01-29T02:28:44.525Z,31.47
2019-01-29T02:29:48.528Z,29.87
2019-01-29T02:30:52.170Z,27.40
2019-01-29T02:31:55.806Z,25.50
2019-01-29T02:32:59.816Z,27.17
2019-01-29T02:34:03.451Z,24.17
2019-01-29T02:35:07.524Z,26.93
2019-01-29T02:36:11.159Z,25.53
2019-01-29T02:37:14.792Z,25.47
2019-01-29T02:38:18.434Z,31.60
2019-01-29T02:39:22.069Z,28.30
2019-01-29T02:40:28.665Z,24.07
2019-01-29T02:41:32.409Z,25.07
2019-01-29T02:42:36.123Z,27.87
2019-01-29T02:43:39.756Z,24.67
2019-01-29T02:44:43.395Z,19.87
2019-01-29T02:45:47.078Z,24.17
2019-01-29T02:46:50.695Z,18.20
2019-01-29T02:47:54.334Z,17.00
2019-01-29T02:48:57.975Z,18.20
2019-01-29T02:50:01.589Z,15.63
2019-01-29T02:51:05.361Z,17.27
2019-01-29T02:52:08.994Z,16.03
2019-01-29T02:53:18.021Z,14.00
2019-01-29T02:54:17.978Z,13.73
2019-01-29T02:55:21.619Z,13.97
2019-01-29T02:56:25.284Z,17.43
2019-01-29T02:57:29.002Z,12.40
2019-01-29T02:58:32.636Z,14.90
2019-01-29T02:59:36.316Z,14.50
2019-01-29T03:00:39.953Z,17.20
2019-01-29T03:01:44.035Z,12.13
2019-01-29T03:02:47.866Z,15.13
2019-01-29T03:03:51.510Z,17.57
2019-01-29T03:04:55.136Z,17.00
2019-01-29T03:05:58.773Z,16.20
2019-01-29T03:07:02.448Z,13.77
2019-01-29T03:08:06.281Z,14.07
2019-01-29T03:09:09.911Z,18.93
2019-01-29T03:10:16.612Z,15.33
2019-01-29T03:11:20.241Z,15.57
2019-01-29T03:12:23.917Z,12.07
2019-01-29T03:13:28.017Z,11.30
2019-01-29T03:14:31.654Z,12.30
2019-01-29T03:15:35.504Z,12.40
2019-01-29T03:16:39.130Z,14.40
2019-01-29T03:17:42.804Z,16.00
2019-01-29T03:18:46.442Z,12.00
2019-01-29T03:19:50.072Z,9.87
2019-01-29T03:20:53.696Z,17.37
2019-01-29T03:21:57.325Z,18.73
2019-01-29T03:23:01.423Z,12.63
2019-01-29T03:24:05.355Z,12.20
2019-01-29T03:25:11.396Z,14.17
2019-01-29T03:26:15.105Z,10.77
2019-01-29T03:27:18.798Z,15.00
2019-01-29T03:28:22.483Z,11.53
2019-01-29T03:29:26.407Z,11.97
2019-01-29T03:30:30.032Z,8.90
2019-01-29T03:31:33.703Z,9.73
2019-01-29T03:32:37.313Z,12.50
2019-01-29T03:33:40.971Z,10.00
2019-01-29T03:34:44.604Z,10.57
2019-01-29T03:35:48.231Z,9.57
2019-01-29T03:36:52.151Z,10.47
2019-01-29T03:37:55.785Z,10.93
2019-01-29T03:38:59.451Z,13.80
2019-01-29T03:40:03.081Z,10.63
2019-01-29T03:41:06.721Z,10.73
2019-01-29T03:42:10.356Z,10.20
2019-01-29T03:43:13.992Z,12.13
2019-01-29T03:44:17.630Z,10.90
2019-01-29T03:45:21.532Z,11.27
2019-01-29T03:46:25.267Z,9.73
2019-01-29T03:47:28.899Z,9.63
2019-01-29T03:48:32.602Z,10.47
2019-01-29T03:49:36.591Z,14.47
2019-01-29T03:50:40.581Z,10.40
2019-01-29T03:51:44.208Z,14.73
2019-01-29T03:52:47.838Z,9.63
2019-01-29T03:53:51.469Z,13.07
2019-01-29T03:54:55.110Z,11.07
2019-01-29T03:55:58.757Z,12.10
2019-01-29T03:57:02.382Z,10.43
2019-01-29T03:58:06.086Z,11.60
2019-01-29T03:59:09.735Z,11.97
2019-01-29T04:00:22.295Z,12.17
2019-01-29T04:01:26.346Z,13.83
2019-01-29T04:02:30.316Z,11.97
2019-01-29T04:03:34.347Z,13.50
2019-01-29T04:04:37.970Z,9.70
2019-01-29T04:05:41.641Z,11.63
2019-01-29T04:06:45.267Z,14.53
2019-01-29T04:07:48.906Z,12.90
2019-01-29T04:08:52.534Z,12.57
2019-01-29T04:09:56.167Z,12.87
2019-01-29T04:10:59.839Z,15.93
2019-01-29T04:12:03.469Z,12.77
2019-01-29T04:13:07.106Z,16.10
2019-01-29T04:14:11.044Z,14.80
2019-01-29T04:15:16.666Z,13.00
2019-01-29T04:16:20.333Z,13.70
2019-01-29T04:17:23.971Z,10.57
2019-01-29T04:18:27.602Z,8.63
2019-01-29T04:19:31.234Z,8.73
2019-01-29T04:20:34.873Z,10.40
2019-01-29T04:21:38.540Z,10.63
2019-01-29T04:22:42.163Z,14.53
2019-01-29T04:23:47.779Z,12.00
2019-01-29T04:24:51.149Z,10.40
2019-01-29T04:25:54.778Z,9.77
2019-01-29T04:26:58.374Z,9.87
2019-01-29T04:28:02.066Z,13.03
2019-01-29T04:29:05.702Z,9.73
2019-01-29T04:30:15.194Z,9.47
2019-01-29T04:31:18.835Z,10.23
2019-01-29T04:32:22.506Z,11.17
2019-01-29T04:33:26.128Z,9.37
2019-01-29T04:34:29.756Z,10.07
2019-01-29T04:35:33.393Z,9.63
2019-01-29T04:36:37.018Z,9.10
2019-01-29T04:37:40.689Z,9.77
2019-01-29T04:38:44.323Z,10.00
2019-01-29T04:39:47.915Z,10.90
2019-01-29T04:40:51.545Z,14.23
2019-01-29T04:41:55.561Z,17.83
2019-01-29T04:42:59.233Z,16.07
2019-01-29T04:44:02.874Z,14.07
2019-01-29T04:45:09.176Z,10.70
2019-01-29T04:46:12.811Z,12.07
2019-01-29T04:47:16.441Z,13.97
2019-01-29T04:48:20.113Z,11.80
2019-01-29T04:49:23.763Z,20.47
2019-01-29T04:50:27.384Z,15.00
2019-01-29T04:51:31.038Z,16.47
2019-01-29T04:52:34.690Z,18.00
2019-01-29T04:53:38.369Z,21.97
2019-01-29T04:54:42.086Z,17.93
2019-01-29T04:55:45.715Z,20.80
2019-01-29T04:56:49.349Z,17.97
2019-01-29T04:57:52.993Z,18.73
2019-01-29T04:58:56.686Z,23.67
2019-01-29T05:00:00.314Z,24.27
2019-01-29T05:01:04.159Z,24.50
2019-01-29T05:02:08.089Z,21.53
2019-01-29T05:03:11.793Z,20.50
2019-01-29T05:04:15.462Z,19.73
2019-01-29T05:05:19.898Z,15.23
2019-01-29T05:06:23.597Z,11.97
2019-01-29T05:07:27.251Z,12.97
2019-01-29T05:08:30.882Z,16.97
2019-01-29T05:09:34.531Z,15.30
2019-01-29T05:10:38.160Z,14.67
2019-01-29T05:11:41.795Z,12.57
2019-01-29T05:12:45.426Z,9.40
2019-01-29T05:13:49.063Z,11.33
2019-01-29T05:14:52.731Z,12.27
2019-01-29T05:15:56.468Z,18.63
2019-01-29T05:17:00.177Z,21.33
2019-01-29T05:18:03.826Z,19.00
2019-01-29T05:19:07.463Z,15.03
2019-01-29T05:20:13.657Z,10.57
2019-01-29T05:21:17.382Z,14.00
2019-01-29T05:22:21.008Z,11.57
2019-01-29T05:23:24.648Z,22.17
2019-01-29T05:24:28.285Z,19.23
2019-01-29T05:25:31.930Z,14.90
2019-01-29T05:26:35.575Z,12.23
2019-01-29T05:27:39.201Z,15.57
2019-01-29T05:28:42.853Z,19.43
2019-01-29T05:29:46.516Z,15.33
2019-01-29T05:30:50.191Z,16.80
2019-01-29T05:31:54.198Z,17.67
2019-01-29T05:32:57.833Z,16.73
2019-01-29T05:34:01.472Z,18.47
2019-01-29T05:35:07.963Z,16.90
2019-01-29T05:36:11.628Z,20.67
2019-01-29T05:37:15.264Z,17.20
2019-01-29T05:38:18.898Z,17.07
2019-01-29T05:39:22.536Z,18.07
2019-01-29T05:40:26.174Z,28.03
2019-01-29T05:41:29.866Z,28.57
2019-01-29T05:42:33.508Z,47.10
2019-01-29T05:43:37.148Z,39.90
2019-01-29T05:44:40.881Z,30.57
2019-01-29T05:45:44.522Z,28.50
2019-01-29T05:46:48.175Z,27.10
2019-01-29T05:47:51.895Z,29.27
2019-01-29T05:48:55.533Z,35.70
2019-01-29T05:49:59.169Z,41.10
2019-01-29T05:51:02.809Z,44.33
2019-01-29T05:52:06.467Z,47.93
2019-01-29T05:53:10.102Z,59.67
2019-01-29T05:54:16.482Z,88.23
2019-01-29T05:55:19.037Z,83.40
2019-01-29T05:56:22.993Z,70.30
2019-01-29T05:57:26.676Z,84.80
2019-01-29T05:58:30.312Z,80.43
2019-01-29T05:59:33.943Z,82.20
2019-01-29T06:00:39.452Z,57.93
2019-01-29T06:01:43.086Z,58.57
2019-01-29T06:02:48.527Z,54.13
2019-01-29T06:03:52.463Z,49.43
2019-01-29T06:04:56.105Z,39.37
2019-01-29T06:05:59.752Z,32.57
2019-01-29T06:07:03.393Z,22.07
2019-01-29T06:08:07.063Z,24.40
2019-01-29T06:09:10.696Z,23.53
2019-01-29T06:10:16.742Z,24.13
2019-01-29T06:11:20.478Z,32.73
2019-01-29T06:12:24.415Z,28.87
2019-01-29T06:13:28.204Z,31.57
2019-01-29T06:14:31.847Z,24.77
2019-01-29T06:15:35.559Z,24.93
2019-01-29T06:16:39.207Z,21.70
2019-01-29T06:17:42.849Z,24.73
2019-01-29T06:18:46.522Z,21.60
2019-01-29T06:19:50.158Z,20.43
2019-01-29T06:20:53.792Z,20.73
2019-01-29T06:21:57.429Z,19.10
2019-01-29T06:23:01.069Z,19.40
2019-01-29T06:24:04.742Z,18.47
2019-01-29T06:25:08.450Z,19.40
2019-01-29T06:26:12.160Z,26.83
2019-01-29T06:27:15.924Z,40.03
2019-01-29T06:28:19.555Z,27.13
2019-01-29T06:29:23.707Z,107.57
2019-01-29T06:30:27.643Z,83.40
2019-01-29T06:31:31.273Z,77.17
2019-01-29T06:32:34.913Z,63.17
2019-01-29T06:33:38.551Z,44.83
2019-01-29T06:34:42.607Z,35.20
2019-01-29T06:35:46.237Z,32.93
2019-01-29T06:36:50.995Z,34.60
2019-01-29T06:37:54.686Z,38.60
2019-01-29T06:38:59.846Z,44.77
2019-01-29T06:40:04.297Z,38.17
2019-01-29T06:41:07.970Z,34.00
2019-01-29T06:42:11.893Z,37.60
2019-01-29T06:43:15.586Z,48.80
2019-01-29T06:44:19.279Z,47.30
2019-01-29T06:45:24.769Z,50.57
2019-01-29T06:46:28.406Z,51.20
2019-01-29T06:47:32.111Z,57.03
2019-01-29T06:48:36.017Z,54.73
2019-01-29T06:49:39.707Z,58.43
2019-01-29T06:50:43.349Z,49.33
2019-01-29T06:51:46.982Z,57.43
2019-01-29T06:52:50.840Z,66.97
2019-01-29T06:53:54.477Z,23.57
2019-01-29T06:54:59.892Z,39.30
2019-01-29T06:56:03.531Z,42.27
2019-01-29T06:57:07.200Z,43.67
2019-01-29T06:58:10.839Z,47.87
2019-01-29T06:59:14.474Z,55.90
2019-01-29T07:00:24.087Z,69.30
2019-01-29T07:01:27.724Z,87.67
2019-01-29T07:02:31.472Z,101.27
2019-01-29T07:03:35.115Z,105.70
2019-01-29T07:04:38.747Z,79.50
2019-01-29T07:05:42.815Z,77.23
2019-01-29T07:06:46.451Z,97.23
2019-01-29T07:07:50.091Z,90.57
2019-01-29T07:08:53.736Z,59.57
2019-01-29T07:09:57.373Z,63.47
2019-01-29T07:11:01.021Z,59.87
2019-01-29T07:12:04.671Z,61.20
2019-01-29T07:13:08.326Z,73.77
2019-01-29T07:14:11.961Z,60.87
2019-01-29T07:15:39.498Z,55.37
2019-01-29T07:16:44.794Z,57.83
2019-01-29T07:17:49.655Z,59.63
2019-01-29T07:18:57.647Z,68.97
2019-01-29T07:20:01.284Z,61.53
2019-01-29T07:21:07.271Z,56.17
2019-01-29T07:22:12.145Z,59.37
2019-01-29T07:23:15.828Z,52.50
2019-01-29T07:24:19.464Z,63.07
2019-01-29T07:25:23.104Z,63.90
2019-01-29T07:26:26.926Z,60.20
2019-01-29T07:27:30.607Z,59.87
2019-01-29T07:28:34.713Z,54.97
2019-01-29T07:29:38.351Z,52.10
2019-01-29T07:30:42.066Z,46.33
2019-01-29T07:31:45.734Z,48.70
2019-01-29T07:32:49.372Z,57.97
2019-01-29T07:33:53.014Z,50.00
2019-01-29T07:34:56.640Z,44.00
2019-01-29T07:36:00.268Z,44.97
2019-01-29T07:37:03.946Z,45.53
2019-01-29T07:38:07.585Z,48.93
2019-01-29T07:39:11.222Z,43.77
2019-01-29T07:40:15.008Z,40.00
2019-01-29T07:41:18.672Z,47.03
2019-01-29T07:42:22.353Z,49.10
2019-01-29T07:43:25.982Z,40.43
2019-01-29T07:44:29.622Z,39.47
2019-01-29T07:45:33.320Z,39.37
2019-01-29T07:46:36.964Z,49.83
2019-01-29T07:47:40.649Z,48.30
2019-01-29T07:48:44.281Z,42.80
2019-01-29T07:49:49.795Z,40.00
2019-01-29T07:50:53.498Z,38.73
2019-01-29T07:51:57.502Z,37.60
2019-01-29T07:53:01.267Z,36.70
2019-01-29T07:54:05.301Z,30.57
2019-01-29T07:55:10.442Z,29.00
2019-01-29T07:56:14.078Z,25.53
2019-01-29T07:57:17.716Z,25.63
2019-01-29T07:58:21.376Z,29.30
2019-01-29T07:59:32.668Z,32.80
2019-01-29T08:00:30.371Z,56.17
2019-01-29T08:01:34.392Z,43.90
2019-01-29T08:02:38.038Z,43.73
2019-01-29T08:03:41.703Z,41.30
2019-01-29T08:04:45.344Z,30.43
2019-01-29T08:05:48.978Z,28.10
2019-01-29T08:06:52.616Z,28.07
2019-01-29T08:07:56.264Z,25.93
2019-01-29T08:08:59.928Z,36.90
2019-01-29T08:10:03.832Z,51.43
2019-01-29T08:11:07.470Z,50.93
2019-01-29T08:12:11.293Z,55.27
2019-01-29T08:13:15.034Z,42.47
2019-01-29T08:14:20.555Z,38.70
2019-01-29T08:15:24.462Z,37.73
2019-01-29T08:16:28.092Z,39.67
2019-01-29T08:17:31.801Z,46.83
2019-01-29T08:18:35.526Z,50.30
2019-01-29T08:19:39.257Z,54.03
2019-01-29T08:20:42.890Z,49.53
2019-01-29T08:21:46.536Z,54.53
2019-01-29T08:22:50.176Z,51.50
2019-01-29T08:23:53.822Z,42.47
2019-01-29T08:25:01.877Z,41.47
2019-01-29T08:26:02.849Z,45.77
2019-01-29T08:27:08.584Z,51.80
2019-01-29T08:28:12.019Z,47.37
2019-01-29T08:29:16.048Z,48.90
2019-01-29T08:30:20.229Z,55.70
2019-01-29T08:31:23.980Z,53.30
2019-01-29T08:32:27.638Z,58.47
2019-01-29T08:33:31.279Z,50.50
2019-01-29T08:34:34.995Z,46.67
2019-01-29T08:35:38.770Z,57.80
2019-01-29T08:36:42.407Z,51.07
2019-01-29T08:37:46.168Z,54.87
2019-01-29T08:38:49.773Z,59.43
2019-01-29T08:39:53.419Z,65.77
2019-01-29T08:40:57.076Z,57.57
2019-01-29T08:42:00.808Z,58.73
2019-01-29T08:43:04.439Z,50.90
2019-01-29T08:44:08.074Z,58.67
2019-01-29T08:45:14.394Z,63.33
2019-01-29T08:46:18.080Z,81.97
2019-01-29T08:47:21.732Z,60.00
2019-01-29T08:48:25.729Z,66.90
2019-01-29T08:49:29.424Z,66.13
2019-01-29T08:50:33.065Z,66.83
2019-01-29T08:51:36.734Z,67.90
2019-01-29T08:52:40.398Z,59.37
2019-01-29T08:53:44.034Z,64.20
2019-01-29T08:54:47.667Z,57.77
2019-01-29T08:55:51.399Z,56.57
2019-01-29T08:56:55.043Z,55.20
2019-01-29T08:57:58.679Z,58.17
2019-01-29T08:59:02.315Z,54.43
2019-01-29T09:00:09.258Z,46.93
2019-01-29T09:01:12.900Z,47.63
2019-01-29T09:02:16.641Z,37.70
2019-01-29T09:03:20.447Z,36.30
2019-01-29T09:04:24.104Z,31.17
2019-01-29T09:05:27.741Z,57.70
2019-01-29T09:06:31.374Z,61.77
2019-01-29T09:07:35.058Z,40.00
2019-01-29T09:08:38.689Z,38.23
2019-01-29T09:09:42.330Z,36.27
2019-01-29T09:10:46.062Z,45.33
2019-01-29T09:11:49.697Z,59.20
2019-01-29T09:12:54.391Z,59.90
2019-01-29T09:13:58.026Z,64.47
2019-01-29T09:15:01.746Z,74.03
2019-01-29T09:16:05.478Z,72.10
2019-01-29T09:17:09.138Z,90.30
2019-01-29T09:18:12.884Z,54.40
2019-01-29T09:19:16.515Z,56.07
2019-01-29T09:20:21.825Z,50.60
2019-01-29T09:21:25.461Z,51.63
2019-01-29T09:22:29.167Z,39.23
2019-01-29T09:23:32.838Z,47.93
2019-01-29T09:24:36.470Z,42.47
2019-01-29T09:25:40.136Z,45.70
2019-01-29T09:26:43.785Z,47.90
2019-01-29T09:27:50.789Z,30.77
2019-01-29T09:28:54.418Z,29.00
2019-01-29T09:29:58.055Z,34.80
2019-01-29T09:31:02.161Z,18.20
2019-01-29T09:32:05.841Z,23.00
2019-01-29T09:33:09.565Z,15.50
2019-01-29T09:34:13.202Z,23.53
2019-01-29T09:35:16.912Z,31.47
2019-01-29T09:36:20.551Z,43.93
2019-01-29T09:37:24.236Z,43.03
2019-01-29T09:38:27.870Z,36.33
2019-01-29T09:39:31.542Z,15.77
2019-01-29T09:40:35.196Z,17.53
2019-01-29T09:41:38.836Z,33.87
2019-01-29T09:42:42.601Z,35.53
2019-01-29T09:43:46.250Z,30.03
2019-01-29T09:44:49.931Z,31.23
2019-01-29T09:45:53.652Z,31.67
2019-01-29T09:46:57.287Z,26.33
2019-01-29T09:48:01.028Z,40.10
2019-01-29T09:49:04.776Z,49.37
2019-01-29T09:50:11.520Z,33.50
2019-01-29T09:51:15.262Z,28.87
2019-01-29T09:52:18.928Z,28.70
2019-01-29T09:53:22.740Z,24.73
2019-01-29T09:54:26.380Z,21.77
2019-01-29T09:55:30.197Z,23.37
2019-01-29T09:56:33.871Z,40.53
2019-01-29T09:57:38.986Z,31.03
2019-01-29T09:58:42.658Z,33.43
2019-01-29T09:59:46.297Z,54.53
2019-01-29T10:00:50.818Z,73.10
2019-01-29T10:01:54.477Z,70.40
2019-01-29T10:02:58.267Z,56.27
2019-01-29T10:04:01.974Z,53.60
2019-01-29T10:05:08.330Z,57.13
2019-01-29T10:06:12.058Z,90.13
2019-01-29T10:07:15.680Z,73.90
2019-01-29T10:08:19.317Z,84.13
2019-01-29T10:09:23.063Z,64.23
2019-01-29T10:10:26.861Z,74.23
2019-01-29T10:11:30.724Z,64.10
2019-01-29T10:12:35.642Z,23.97
2019-01-29T10:13:41.931Z,31.60
2019-01-29T10:14:46.228Z,33.07
2019-01-29T10:15:49.951Z,25.50
2019-01-29T10:16:53.767Z,39.20
2019-01-29T10:17:58.944Z,42.80
2019-01-29T10:19:02.608Z,41.17
2019-01-29T10:20:07.530Z,33.97
2019-01-29T10:21:11.232Z,36.70
2019-01-29T10:22:15.062Z,52.03
2019-01-29T10:23:18.767Z,44.37
2019-01-29T10:24:22.668Z,30.40
2019-01-29T10:25:26.812Z,29.90
2019-01-29T10:26:30.550Z,26.90
2019-01-29T10:27:34.271Z,18.13
2019-01-29T10:28:38.003Z,32.87
2019-01-29T10:29:41.701Z,22.27
2019-01-29T10:30:45.470Z,20.80
2019-01-29T10:31:49.195Z,20.37
2019-01-29T10:32:53.569Z,38.43
2019-01-29T10:33:59.951Z,29.33
2019-01-29T10:35:07.131Z,25.87
2019-01-29T10:36:10.838Z,31.53
2019-01-29T10:37:14.594Z,29.53
2019-01-29T10:38:18.246Z,43.17
2019-01-29T10:39:21.961Z,29.57
2019-01-29T10:40:27.228Z,25.93
2019-01-29T10:41:30.962Z,24.73
2019-01-29T10:42:34.598Z,20.17
2019-01-29T10:43:38.233Z,25.07
2019-01-29T10:44:41.917Z,17.57
2019-01-29T10:45:45.632Z,14.37
2019-01-29T10:46:49.595Z,17.73
2019-01-29T10:47:53.232Z,27.37
2019-01-29T10:48:56.870Z,18.13
2019-01-29T10:50:00.585Z,21.30
2019-01-29T10:51:04.363Z,23.17
2019-01-29T10:52:08.100Z,24.83
2019-01-29T10:53:11.744Z,34.50
2019-01-29T10:54:15.372Z,34.97
2019-01-29T10:55:19.526Z,32.07
2019-01-29T10:56:23.162Z,30.63
2019-01-29T10:57:26.798Z,43.47
2019-01-29T10:58:30.436Z,44.03
2019-01-29T10:59:34.087Z,13.33
2019-01-29T11:00:40.330Z,9.37
2019-01-29T11:01:44.023Z,8.53
2019-01-29T11:02:47.995Z,9.43
2019-01-29T11:03:51.634Z,13.80
2019-01-29T11:04:55.559Z,17.27
2019-01-29T11:05:59.255Z,16.30
2019-01-29T11:07:03.317Z,26.07
2019-01-29T11:08:06.977Z,32.93
2019-01-29T11:09:11.737Z,35.03
2019-01-29T11:10:17.521Z,43.10
2019-01-29T11:11:21.154Z,44.70
2019-01-29T11:12:24.808Z,40.83
2019-01-29T11:13:28.471Z,42.70
2019-01-29T11:14:32.112Z,36.10
2019-01-29T11:15:38.059Z,45.30
2019-01-29T11:16:42.689Z,44.73
2019-01-29T11:17:46.336Z,42.07
2019-01-29T11:18:50.031Z,38.87
2019-01-29T11:19:53.665Z,46.53
2019-01-29T11:20:57.383Z,47.87
2019-01-29T11:22:01.025Z,43.03
2019-01-29T11:23:05.264Z,43.07
2019-01-29T11:24:08.914Z,44.00
2019-01-29T11:25:23.798Z,45.37
2019-01-29T11:26:27.437Z,40.33
2019-01-29T11:27:31.142Z,40.50
2019-01-29T11:28:34.884Z,40.50
2019-01-29T11:29:38.733Z,46.50
2019-01-29T11:30:42.474Z,42.23
2019-01-29T11:31:46.186Z,40.60
2019-01-29T11:32:49.863Z,38.70
2019-01-29T11:33:53.502Z,39.10
2019-01-29T11:34:57.212Z,44.70
2019-01-29T11:36:00.882Z,40.77
2019-01-29T11:37:05.019Z,42.60
2019-01-29T11:38:08.702Z,35.90
2019-01-29T11:39:12.443Z,33.40
2019-01-29T11:40:24.644Z,30.10
2019-01-29T11:41:28.345Z,32.40
2019-01-29T11:42:31.985Z,27.47
2019-01-29T11:43:35.657Z,25.37
2019-01-29T11:44:39.366Z,24.53
2019-01-29T11:45:46.003Z,23.80
2019-01-29T11:46:49.631Z,28.23
2019-01-29T11:47:53.269Z,22.90
2019-01-29T11:48:56.958Z,21.93
2019-01-29T11:50:00.942Z,29.37
2019-01-29T11:51:04.773Z,27.20
2019-01-29T11:52:08.484Z,30.27
2019-01-29T11:53:12.118Z,38.30
2019-01-29T11:54:15.788Z,38.40
2019-01-29T11:55:19.517Z,39.10
2019-01-29T11:56:23.151Z,39.53
2019-01-29T11:57:26.792Z,40.17
2019-01-29T11:58:30.439Z,42.40
2019-01-29T11:59:34.124Z,38.90
2019-01-29T12:00:40.201Z,40.80
2019-01-29T12:01:43.839Z,38.60
2019-01-29T12:02:47.478Z,41.47
2019-01-29T12:03:51.115Z,38.50
2019-01-29T12:04:54.791Z,37.30
2019-01-29T12:05:58.423Z,46.37
2019-01-29T12:07:02.129Z,38.97
2019-01-29T12:08:07.074Z,39.33
2019-01-29T12:09:10.914Z,41.40
2019-01-29T12:10:15.446Z,43.13
2019-01-29T12:11:19.156Z,33.90
2019-01-29T12:12:23.174Z,30.57
2019-01-29T12:13:26.813Z,29.10
2019-01-29T12:14:30.454Z,31.93
2019-01-29T12:15:34.123Z,33.13
2019-01-29T12:16:37.762Z,30.90
2019-01-29T12:17:41.400Z,30.50
2019-01-29T12:18:45.050Z,36.47
2019-01-29T12:19:48.766Z,42.40
2019-01-29T12:20:52.441Z,39.67
2019-01-29T12:21:56.081Z,26.97
2019-01-29T12:22:59.733Z,25.73
2019-01-29T12:24:03.364Z,28.20
2019-01-29T12:25:07.804Z,39.27
2019-01-29T12:26:13.324Z,42.37
2019-01-29T12:27:17.814Z,46.80
2019-01-29T12:28:21.683Z,58.53
2019-01-29T12:29:25.401Z,32.07
2019-01-29T12:30:30.342Z,33.90
2019-01-29T12:31:34.090Z,27.50
2019-01-29T12:32:37.804Z,22.70
2019-01-29T12:33:41.492Z,27.43
2019-01-29T12:34:45.218Z,27.40
2019-01-29T12:35:48.853Z,19.97
2019-01-29T12:36:52.530Z,22.80
2019-01-29T12:37:56.525Z,16.83
2019-01-29T12:39:00.164Z,24.23
2019-01-29T12:40:05.342Z,26.83
2019-01-29T12:41:08.974Z,27.33
2019-01-29T12:42:12.653Z,26.27
2019-01-29T12:43:16.385Z,25.57
2019-01-29T12:44:20.032Z,29.63
2019-01-29T12:45:24.576Z,48.17
2019-01-29T12:46:28.288Z,37.60
2019-01-29T12:47:32.056Z,26.50
2019-01-29T12:48:35.700Z,26.10
2019-01-29T12:49:39.433Z,20.70
2019-01-29T12:50:44.696Z,16.63
2019-01-29T12:51:50.004Z,14.93
2019-01-29T12:52:55.319Z,13.67
2019-01-29T12:53:59.296Z,13.53
2019-01-29T12:55:02.938Z,13.40
2019-01-29T12:56:06.573Z,12.77
2019-01-29T12:57:10.732Z,11.73
2019-01-29T12:58:14.422Z,16.07
2019-01-29T12:59:18.066Z,24.67
2019-01-29T13:00:23.384Z,20.70
2019-01-29T13:01:27.031Z,26.83
2019-01-29T13:02:30.683Z,27.83
2019-01-29T13:03:34.366Z,29.97
2019-01-29T13:04:38.045Z,31.63
2019-01-29T13:05:41.690Z,33.20
2019-01-29T13:06:45.372Z,27.30
2019-01-29T13:07:49.202Z,24.67
2019-01-29T13:08:53.252Z,23.23
2019-01-29T13:09:56.899Z,19.80
2019-01-29T13:11:00.632Z,16.63
2019-01-29T13:12:05.082Z,20.17
2019-01-29T13:13:09.017Z,27.30
2019-01-29T13:14:12.780Z,33.87
2019-01-29T13:15:29.634Z,33.70
2019-01-29T13:16:34.258Z,33.83
2019-01-29T13:17:38.008Z,32.77
2019-01-29T13:18:41.697Z,35.40
2019-01-29T13:19:45.339Z,44.57
2019-01-29T13:20:48.975Z,41.43
2019-01-29T13:21:52.605Z,41.30
2019-01-29T13:22:56.284Z,36.93
2019-01-29T13:23:59.926Z,32.60
2019-01-29T13:25:03.661Z,28.93
2019-01-29T13:26:07.336Z,28.40
2019-01-29T13:27:10.973Z,25.53
2019-01-29T13:28:14.665Z,30.23
2019-01-29T13:29:18.506Z,24.60
2019-01-29T13:30:27.980Z,26.37
2019-01-29T13:31:31.689Z,29.80
2019-01-29T13:32:35.399Z,26.83
2019-01-29T13:33:39.064Z,27.53
2019-01-29T13:34:42.738Z,30.40
2019-01-29T13:35:48.266Z,43.07
2019-01-29T13:36:52.561Z,45.53
2019-01-29T13:37:56.276Z,39.43
2019-01-29T13:38:59.928Z,34.57
2019-01-29T13:40:05.099Z,31.27
2019-01-29T13:41:08.733Z,40.67
2019-01-29T13:42:13.304Z,40.43
2019-01-29T13:43:17.020Z,33.87
2019-01-29T13:44:20.677Z,33.57
2019-01-29T13:45:24.597Z,36.77